createdAt,value
2022-09-07T00:06:41.614Z,54.53
2022-09-07T00:14:15.184Z,54.43
2022-09-07T00:21:50.294Z,54.59
2022-09-07T00:29:24.153Z,54.95
2022-09-07T00:36:59.284Z,55.02
2022-09-07T00:44:51.566Z,55.42
2022-09-07T00:52:30.135Z,55.13
2022-09-07T01:00:06.664Z,55.65
2022-09-07T01:07:42.500Z,56.05
2022-09-07T01:15:16.378Z,56.04
2022-09-07T01:23:22.366Z,57.45
2022-09-07T01:31:00.210Z,58.31
2022-09-07T01:38:42.187Z,58.26
2022-09-07T01:46:22.061Z,58.46
2022-09-07T01:54:00.183Z,58.67
2022-09-07T02:01:40.256Z,58.95
2022-09-07T02:09:20.878Z,59.39
2022-09-07T02:17:00.015Z,59.59
2022-09-07T02:24:38.146Z,60.27
2022-09-07T02:32:13.342Z,60.57
2022-09-07T02:39:47.835Z,60.81
2022-09-07T02:47:35.016Z,61.13
2022-09-07T02:55:18.785Z,61.15
2022-09-07T03:03:09.093Z,61.33
2022-09-07T03:10:44.203Z,61.21
2022-09-07T03:18:19.365Z,61.87
2022-09-07T03:25:53.159Z,62.16
2022-09-07T03:33:28.268Z,62.67
2022-09-07T03:41:02.505Z,63.33
2022-09-07T03:48:39.132Z,63.55
2022-09-07T03:56:19.319Z,64.45
2022-09-07T04:04:01.773Z,65.52
2022-09-07T04:11:36.141Z,65.30
2022-09-07T04:19:11.288Z,66.62
2022-09-07T04:26:45.616Z,66.62
2022-09-07T04:34:20.773Z,66.57
2022-09-07T04:41:54.997Z,67.31
2022-09-07T04:49:30.429Z,67.98
2022-09-07T04:57:04.267Z,68.44
2022-09-07T05:04:39.458Z,68.83
2022-09-07T05:12:13.179Z,68.64
2022-09-07T05:19:49.226Z,68.63
2022-09-07T05:27:23.050Z,68.66
2022-09-07T05:34:58.228Z,68.68
2022-09-07T05:42:31.923Z,67.84
2022-09-07T05:50:08.996Z,68.48
2022-09-07T05:57:42.993Z,68.34
2022-09-07T06:05:18.591Z,67.44
2022-09-07T06:12:53.542Z,67.30
2022-09-07T06:20:28.788Z,67.34
2022-09-07T06:28:02.666Z,66.84
2022-09-07T06:35:37.905Z,66.31
2022-09-07T06:43:11.721Z,67.55
2022-09-07T06:50:56.319Z,68.02
2022-09-07T06:58:30.375Z,67.32
2022-09-07T07:06:06.513Z,67.63
2022-09-07T07:13:41.628Z,65.73
2022-09-07T07:21:17.036Z,65.80
2022-09-07T07:29:00.777Z,65.07
2022-09-07T07:36:37.567Z,65.18
2022-09-07T07:44:13.270Z,65.50
2022-09-07T07:59:42.482Z,63.46
2022-09-07T08:07:18.800Z,60.52
2022-09-07T08:14:54.066Z,60.35
2022-09-07T08:22:32.983Z,60.70
2022-09-07T08:30:10.582Z,58.62
2022-09-07T08:37:45.691Z,57.07
2022-09-07T08:45:24.302Z,56.77
2022-09-07T08:53:03.294Z,56.43
2022-09-07T09:00:39.414Z,56.38
2022-09-07T09:08:28.387Z,54.58
2022-09-07T09:16:07.075Z,54.35
2022-09-07T09:23:44.395Z,54.07
2022-09-07T09:31:20.222Z,55.41
2022-09-07T09:38:56.433Z,53.72
2022-09-07T09:46:33.557Z,54.82
2022-09-07T09:54:24.176Z,54.43
2022-09-07T10:09:55.579Z,54.98
2022-09-07T10:17:31.794Z,56.27
2022-09-07T10:25:30.523Z,57.40
2022-09-07T10:33:09.115Z,58.51
2022-09-07T10:40:48.580Z,59.03
2022-09-07T10:48:31.090Z,59.41
2022-09-07T10:56:10.898Z,60.30
2022-09-07T11:03:58.243Z,61.50
2022-09-07T11:19:38.160Z,60.28
2022-09-07T11:27:19.995Z,60.90
2022-09-07T11:34:58.581Z,60.64
2022-09-07T11:42:45.993Z,61.94
2022-09-07T11:50:23.082Z,60.98
2022-09-07T11:58:25.052Z,61.14
2022-09-07T12:06:22.205Z,61.21
2022-09-07T12:14:16.308Z,59.71
2022-09-07T12:21:56.911Z,59.95
2022-09-07T12:29:32.651Z,60.68
2022-09-07T12:37:44.780Z,60.29
2022-09-07T12:45:56.637Z,60.55
2022-09-07T12:53:35.550Z,60.62
2022-09-07T13:01:21.357Z,60.91
2022-09-07T13:09:30.489Z,61.94
2022-09-07T13:17:41.595Z,61.57
2022-09-07T13:25:48.310Z,60.91
2022-09-07T13:33:48.518Z,60.60
2022-09-07T13:41:27.033Z,62.03
2022-09-07T13:49:08.227Z,61.57
2022-09-07T13:56:54.076Z,60.63
2022-09-07T14:04:36.072Z,60.08
2022-09-07T14:12:16.912Z,60.75
2022-09-07T14:19:51.922Z,60.33
2022-09-07T14:27:33.561Z,58.90
2022-09-07T14:35:12.792Z,59.31
2022-09-07T14:42:49.813Z,59.63
2022-09-07T14:50:27.531Z,59.45
2022-09-07T14:58:23.126Z,57.05
2022-09-07T15:06:01.204Z,56.72
2022-09-07T15:13:39.936Z,57.00
2022-09-07T15:21:13.737Z,56.13
2022-09-07T15:36:45.019Z,56.14
2022-09-07T15:44:25.025Z,56.60
2022-09-07T15:52:07.110Z,56.58
2022-09-07T15:59:42.208Z,57.29
2022-09-07T16:07:15.886Z,58.13
2022-09-07T16:14:56.435Z,58.13
2022-09-07T16:30:26.087Z,58.93
2022-09-07T16:46:04.666Z,60.03
2022-09-07T16:53:39.739Z,60.25
2022-09-07T17:01:17.383Z,61.90
2022-09-07T17:08:51.503Z,61.99
2022-09-07T17:16:28.898Z,61.29
2022-09-07T17:24:04.207Z,63.20
2022-09-07T17:39:33.877Z,64.96
2022-09-07T17:47:09.415Z,65.89
2022-09-07T17:54:43.032Z,64.71
2022-09-07T18:02:18.028Z,63.86
2022-09-07T18:09:52.564Z,63.54
2022-09-07T18:17:28.151Z,64.27
2022-09-07T18:25:03.479Z,64.89
2022-09-07T18:32:38.768Z,66.89
2022-09-07T18:40:12.707Z,68.04
2022-09-07T18:47:47.898Z,70.58
2022-09-07T18:55:21.748Z,73.25
2022-09-07T19:02:56.770Z,74.61
2022-09-07T19:10:30.526Z,75.73
2022-09-07T19:18:06.564Z,77.31
2022-09-07T19:25:43.149Z,79.74
2022-09-07T19:33:18.580Z,80.04
2022-09-07T19:40:58.873Z,80.58
2022-09-07T19:48:33.913Z,80.53
2022-09-07T19:56:09.627Z,78.43
2022-09-07T20:03:46.449Z,76.05
2022-09-07T20:11:20.336Z,76.04
2022-09-07T20:18:55.628Z,76.25
2022-09-07T20:26:30.331Z,75.42
2022-09-07T20:34:05.514Z,74.25
2022-09-07T20:41:39.304Z,73.81
2022-09-07T20:49:14.405Z,73.70
2022-09-07T20:56:48.087Z,73.30
2022-09-07T21:04:26.426Z,73.34
2022-09-07T21:12:00.078Z,73.72
2022-09-07T21:19:36.887Z,75.15
2022-09-07T21:27:10.490Z,76.48
2022-09-07T21:34:45.511Z,76.39
2022-09-07T21:42:19.017Z,75.94
2022-09-07T21:49:54.155Z,75.58
2022-09-07T21:57:27.954Z,73.22
2022-09-07T22:05:02.967Z,72.59
2022-09-07T22:12:36.714Z,72.42
2022-09-07T22:20:12.855Z,72.90
2022-09-07T22:27:46.549Z,72.73
2022-09-07T22:35:22.030Z,72.66
2022-09-07T22:42:55.643Z,72.52
2022-09-07T22:50:30.696Z,72.24
2022-09-07T22:58:04.183Z,72.06
2022-09-07T23:05:39.676Z,72.17
2022-09-07T23:13:16.802Z,71.41
2022-09-07T23:20:52.005Z,71.60
2022-09-07T23:28:25.525Z,71.38
2022-09-07T23:36:03.167Z,71.11
2022-09-07T23:43:36.974Z,71.74
2022-09-07T23:51:12.888Z,71.58
2022-09-07T23:58:46.578Z,71.63
